Time;durP1;ratioP1;P1;durP2;ratioP2;P2;SDS_P1;SDS_P2;PMS_P1;PMS_P2;Temp;Humidity;BMP_temperature;BMP_pressure;BME280_temperature;BME280_humidity;BME280_pressure;Samples;Min_cycle;Max_cycle;Signal;HPM_P1;HPM_P2
2023/04/22 00:03:07;;;;;;;4.72;2.75;;;;;;;5.98;89.86;101362.72;5048868;28;20254;-44
2023/04/22 00:05:12;;;;;;;4.53;2.67;;;;;;;6.00;90.08;101365.38;5046845;28;20195;-43
2023/04/22 00:07:41;;;;;;;4.68;3.30;;;;;;;5.93;89.86;101353.00;5049355;28;20229;-42
2023/04/22 00:10:10;;;;;;;6.53;2.83;;;;;;;5.82;89.97;101357.56;5050185;28;20253;-45
2023/04/22 00:12:36;;;;;;;7.30;3.00;;;;;;;5.71;90.30;101363.88;5051714;28;20183;-46
2023/04/22 00:15:04;;;;;;;6.93;2.88;;;;;;;5.80;90.86;101356.69;5049941;28;20653;-43
2023/04/22 00:17:33;;;;;;;4.38;3.13;;;;;;;5.78;90.89;101343.41;5039384;28;20248;-45
2023/04/22 00:20:01;;;;;;;4.28;3.20;;;;;;;5.78;90.60;101336.31;5035500;28;20693;-45
2023/04/22 00:22:29;;;;;;;3.67;2.75;;;;;;;5.78;90.82;101333.66;5042898;28;20187;-44
2023/04/22 00:24:55;;;;;;;3.65;3.17;;;;;;;5.80;90.68;101330.09;5044581;28;20198;-43
2023/04/22 00:27:21;;;;;;;3.97;3.00;;;;;;;5.74;90.52;101331.91;5038021;28;20228;-45
2023/04/22 00:29:49;;;;;;;3.70;2.85;;;;;;;5.66;90.52;101332.88;5045869;28;20207;-46
2023/04/22 00:32:16;;;;;;;5.03;3.15;;;;;;;5.66;90.83;101331.09;5058061;28;20199;-45
2023/04/22 00:34:42;;;;;;;4.38;2.78;;;;;;;5.63;91.11;101319.63;5040082;28;20187;-46
2023/04/22 00:37:08;;;;;;;4.22;2.80;;;;;;;5.58;90.70;101325.88;5050759;28;20179;-46
2023/04/22 00:39:38;;;;;;;4.38;3.22;;;;;;;5.61;91.20;101313.47;5048104;28;20254;-45
2023/04/22 00:42:06;;;;;;;3.28;2.97;;;;;;;5.65;90.93;101302.78;5049672;28;20187;-45
2023/04/22 00:44:32;;;;;;;2.95;2.70;;;;;;;5.64;91.19;101310.75;5033433;28;20547;-44
2023/04/22 00:46:59;;;;;;;4.90;3.03;;;;;;;5.55;91.38;101309.06;5050347;28;20252;-44
2023/04/22 00:49:27;;;;;;;6.97;3.70;;;;;;;5.60;91.05;101303.69;5035384;28;20195;-51
2023/04/22 00:51:53;;;;;;;3.92;3.28;;;;;;;5.52;91.74;101302.00;5049454;28;20194;-49
2023/04/22 00:54:19;;;;;;;5.15;3.28;;;;;;;5.50;91.42;101303.81;5049643;28;20175;-49
2023/04/22 00:56:45;;;;;;;6.60;3.05;;;;;;;5.48;91.54;101304.72;5049180;28;20198;-48
2023/04/22 00:59:12;;;;;;;4.10;3.10;;;;;;;5.54;92.19;101294.91;5049405;28;20293;-47
2023/04/22 01:01:39;;;;;;;5.28;3.08;;;;;;;5.52;91.98;101290.50;5049393;28;20206;-47
2023/04/22 01:04:05;;;;;;;4.28;2.75;;;;;;;5.58;92.23;101287.78;5049071;28;20249;-48
2023/04/22 01:06:33;;;;;;;4.75;3.15;;;;;;;5.57;91.84;101278.03;5041617;28;20187;-49
2023/04/22 01:08:59;;;;;;;4.00;2.75;;;;;;;5.55;92.18;101287.81;5048912;28;20223;-49
2023/04/22 01:11:25;;;;;;;5.50;3.17;;;;;;;5.52;92.08;101285.19;5022707;28;20263;-48
2023/04/22 01:13:51;;;;;;;4.95;3.13;;;;;;;5.51;91.79;101281.66;5048535;28;20261;-51
2023/04/22 01:16:18;;;;;;;4.15;2.85;;;;;;;5.52;91.84;101282.53;5048749;28;20167;-50
2023/04/22 01:18:43;;;;;;;3.92;3.00;;;;;;;5.47;92.31;101277.28;5051094;28;20898;-49
2023/04/22 01:21:09;;;;;;;6.90;3.40;;;;;;;5.38;92.29;101285.34;5069219;22;20238;-45
2023/04/22 01:23:35;;;;;;;4.57;3.00;;;;;;;5.34;92.14;101276.50;5034052;28;20191;-46
2023/04/22 01:26:01;;;;;;;4.18;3.28;;;;;;;5.29;92.42;101277.44;5031463;28;20239;-44
2023/04/22 01:28:27;;;;;;;5.70;3.20;;;;;;;5.27;92.73;101280.13;5023706;28;20193;-45
2023/04/22 01:30:55;;;;;;;3.40;3.10;;;;;;;5.26;92.63;101269.50;5024695;28;20199;-44
2023/04/22 01:33:20;;;;;;;4.57;3.10;;;;;;;5.24;92.76;101274.81;5026825;28;20551;-47
2023/04/22 01:35:46;;;;;;;5.65;3.45;;;;;;;5.17;92.86;101275.78;5031660;28;20173;-48
2023/04/22 01:38:12;;;;;;;6.40;3.53;;;;;;;5.05;92.89;101271.47;5025602;28;20175;-46
2023/04/22 01:40:38;;;;;;;4.03;3.28;;;;;;;5.07;93.59;101269.69;5034822;28;20216;-45
2023/04/22 01:43:04;;;;;;;4.55;3.30;;;;;;;5.02;93.59;101267.94;5032692;28;20688;-46
2023/04/22 01:45:30;;;;;;;4.38;3.10;;;;;;;5.04;94.10;101260.84;5027770;28;20172;-47
2023/04/22 01:47:56;;;;;;;4.88;3.50;;;;;;;5.07;94.02;101260.81;5022290;28;20535;-46
2023/04/22 01:50:23;;;;;;;4.57;3.05;;;;;;;5.04;94.34;101258.19;5041863;28;20669;-48
2023/04/22 01:52:48;;;;;;;5.00;3.50;;;;;;;5.01;94.47;101248.47;5035775;28;20191;-47
2023/04/22 01:55:14;;;;;;;5.32;3.47;;;;;;;4.93;94.19;101247.66;5024740;28;20193;-46
2023/04/22 01:57:41;;;;;;;3.75;2.95;;;;;;;4.78;94.31;101250.44;5037017;28;20249;-48
2023/04/22 02:00:08;;;;;;;6.28;3.78;;;;;;;4.68;95.02;101266.44;5040163;28;20203;-47
2023/04/22 02:02:43;;;;;;;6.40;3.40;;;;;;;4.70;95.67;101263.75;5032429;28;20296;-47
2023/04/22 02:05:09;;;;;;;6.55;4.30;;;;;;;4.56;96.29;101261.19;5033315;28;20619;-47
2023/04/22 02:07:35;;;;;;;4.82;3.78;;;;;;;4.51;96.87;101250.63;5030678;28;20239;-45
2023/04/22 02:10:04;;;;;;;5.50;3.28;;;;;;;4.47;97.08;101248.00;5039877;28;20279;-48
2023/04/22 02:12:31;;;;;;;7.30;3.88;;;;;;;4.53;97.48;101247.97;5043242;28;20521;-47
2023/04/22 02:14:57;;;;;;;7.65;3.78;;;;;;;4.48;97.68;101245.34;5034806;28;20210;-46
2023/04/22 02:17:24;;;;;;;4.13;3.63;;;;;;;4.43;97.99;101244.47;5045174;28;20258;-46
2023/04/22 02:19:50;;;;;;;4.45;3.60;;;;;;;4.46;98.19;101240.91;5025478;28;20283;-47
2023/04/22 02:22:16;;;;;;;4.47;3.50;;;;;;;4.12;98.53;101244.66;5028504;28;20460;-46
2023/04/22 02:24:42;;;;;;;6.07;3.83;;;;;;;4.10;99.32;101235.81;5043768;28;20175;-45
2023/04/22 02:27:08;;;;;;;6.70;3.72;;;;;;;3.99;99.87;101231.47;5036482;28;20261;-46
2023/04/22 02:29:33;;;;;;;4.30;3.75;;;;;;;4.04;100.00;101230.53;5037078;28;20282;-47
2023/04/22 02:31:59;;;;;;;5.80;3.63;;;;;;;3.93;100.00;101232.34;5044976;28;20728;-47
2023/04/22 02:34:25;;;;;;;4.45;3.78;;;;;;;3.81;100.00;101228.00;5045815;28;20218;-46
2023/04/22 02:36:52;;;;;;;5.88;4.30;;;;;;;3.69;100.00;101223.59;5037033;28;20712;-45
2023/04/22 02:39:18;;;;;;;4.20;3.80;;;;;;;3.63;100.00;101228.97;5045321;28;20253;-47
2023/04/22 02:41:44;;;;;;;5.05;4.30;;;;;;;3.64;100.00;101232.47;5019963;28;20194;-46
2023/04/22 02:44:10;;;;;;;5.63;3.97;;;;;;;3.66;100.00;101220.97;5042062;28;20203;-46
2023/04/22 02:46:36;;;;;;;6.30;4.47;;;;;;;3.69;100.00;101218.31;5013278;28;20200;-49
2023/04/22 02:49:01;;;;;;;8.75;4.55;;;;;;;3.71;100.00;101216.53;5028539;28;20291;-48
2023/04/22 02:51:27;;;;;;;4.43;4.03;;;;;;;3.74;100.00;101206.81;5034155;28;20288;-49
2023/04/22 02:53:53;;;;;;;7.07;4.28;;;;;;;3.80;100.00;101212.97;5028246;28;20273;-49
2023/04/22 02:56:19;;;;;;;5.28;4.20;;;;;;;3.85;100.00;101197.94;5030331;28;20195;-49
2023/04/22 02:58:45;;;;;;;5.47;3.97;;;;;;;3.72;100.00;101202.41;5034963;28;20211;-50
2023/04/22 03:01:11;;;;;;;4.70;3.78;;;;;;;3.71;100.00;101203.28;5030964;28;20191;-49
2023/04/22 03:03:37;;;;;;;4.07;3.63;;;;;;;3.60;100.00;101198.94;5016376;28;20605;-50
2023/04/22 03:06:04;;;;;;;5.07;4.25;;;;;;;3.74;100.00;101194.47;5022367;28;20203;-50
2023/04/22 03:08:30;;;;;;;5.10;4.05;;;;;;;3.79;100.00;101189.16;5036665;28;20604;-49
2023/04/22 03:10:56;;;;;;;4.72;4.18;;;;;;;3.79;100.00;101191.78;5030904;28;20257;-51
2023/04/22 03:13:21;;;;;;;7.93;4.35;;;;;;;3.83;100.00;101193.56;5019758;28;20235;-50
2023/04/22 03:15:50;;;;;;;5.78;3.85;;;;;;;3.77;100.00;101189.16;5024049;28;20173;-49
2023/04/22 03:18:15;;;;;;;6.80;3.88;;;;;;;3.79;100.00;101190.03;5042950;28;20240;-49
2023/04/22 03:20:42;;;;;;;5.20;3.90;;;;;;;3.90;100.00;101184.66;5031331;28;20270;-52
2023/04/22 03:23:08;;;;;;;5.65;3.95;;;;;;;3.95;100.00;101187.28;5022395;28;20602;-50
2023/04/22 03:25:35;;;;;;;4.80;3.72;;;;;;;3.96;100.00;101174.03;5034869;28;20199;-48
2023/04/22 03:28:02;;;;;;;5.15;4.00;;;;;;;3.94;100.00;101177.59;5037899;28;20185;-51
2023/04/22 03:30:29;;;;;;;6.00;4.50;;;;;;;3.81;100.00;101168.81;5034543;28;20565;-49
2023/04/22 03:32:55;;;;;;;7.82;4.05;;;;;;;3.89;100.00;101167.91;5031080;28;20202;-49
2023/04/22 03:35:30;;;;;;;7.22;3.63;;;;;;;3.85;100.00;101165.28;5025640;28;20281;-52
2023/04/22 03:37:59;;;;;;;6.03;4.18;;;;;;;3.76;100.00;101170.59;5035071;28;20625;-49
2023/04/22 03:40:31;;;;;;;4.53;3.83;;;;;;;3.79;100.00;101167.94;5034387;28;20205;-50
2023/04/22 03:42:58;;;;;;;6.60;4.32;;;;;;;3.66;100.00;101156.53;5023271;28;20275;-49
2023/04/22 03:45:25;;;;;;;5.50;4.43;;;;;;;3.68;100.00;101147.66;5024011;28;20193;-50
2023/04/22 03:48:08;;;;;;;5.55;4.28;;;;;;;3.77;100.00;101154.69;5039471;28;20604;-49
2023/04/22 03:50:39;;;;;;;6.47;4.32;;;;;;;3.54;100.00;101154.78;5035715;28;20200;-51
2023/04/22 03:53:06;;;;;;;6.97;4.80;;;;;;;3.47;100.00;101147.75;5019974;28;20663;-49
2023/04/22 03:55:32;;;;;;;7.22;4.30;;;;;;;3.41;100.00;101153.06;5035019;28;20200;-50
2023/04/22 03:57:59;;;;;;;7.25;4.35;;;;;;;3.42;100.00;101133.66;5044236;28;20194;-50
2023/04/22 04:00:25;;;;;;;8.27;4.93;;;;;;;3.55;100.00;101131.84;5031832;28;20196;-49
2023/04/22 04:03:03;;;;;;;7.18;4.65;;;;;;;3.25;100.00;101131.94;5034463;28;20188;-50
2023/04/22 04:05:29;;;;;;;6.35;4.97;;;;;;;3.21;100.00;101135.47;5040076;28;20646;-49
2023/04/22 04:07:55;;;;;;;7.47;4.60;;;;;;;3.36;100.00;101123.97;5043598;28;20256;-52
2023/04/22 04:10:22;;;;;;;5.90;4.63;;;;;;;3.42;100.00;101120.41;5028567;28;20203;-53
2023/04/22 04:12:49;;;;;;;7.25;4.93;;;;;;;3.49;100.00;101117.72;5027170;28;20246;-50
2023/04/22 04:15:17;;;;;;;8.98;5.50;;;;;;;3.52;100.00;101114.19;5034603;28;20617;-50
2023/04/22 04:17:45;;;;;;;8.05;4.70;;;;;;;3.45;100.00;101109.78;5039893;28;20179;-49
2023/04/22 04:20:11;;;;;;;9.93;5.22;;;;;;;3.47;100.00;101102.72;5035729;28;20802;-49
2023/04/22 04:22:38;;;;;;;8.20;5.10;;;;;;;3.50;100.00;101105.38;5037063;28;20674;-51
2023/04/22 04:25:05;;;;;;;8.23;4.63;;;;;;;3.61;100.00;101103.56;5037474;28;20272;-50
2023/04/22 04:27:38;;;;;;;7.30;5.15;;;;;;;3.47;100.00;101108.91;5028822;28;20701;-49
2023/04/22 04:30:05;;;;;;;7.22;4.55;;;;;;;3.60;100.00;101104.44;5002694;28;20713;-49
2023/04/22 04:32:44;;;;;;;8.75;5.47;;;;;;;3.69;100.00;101104.38;5037487;28;20242;-49
2023/04/22 04:35:14;;;;;;;6.20;5.28;;;;;;;3.71;100.00;101102.59;5036848;28;20195;-49
2023/04/22 04:37:45;;;;;;;6.15;5.03;;;;;;;3.81;100.00;101098.13;5038426;28;20399;-52
2023/04/22 04:40:11;;;;;;;5.78;5.07;;;;;;;3.88;100.00;101091.03;5032626;28;20237;-51
2023/04/22 04:43:07;;;;;;;7.82;5.32;;;;;;;4.01;100.00;101087.41;5034133;28;20285;-48
2023/04/22 04:45:36;;;;;;;6.50;5.45;;;;;;;4.20;100.00;101080.19;5024107;28;20192;-50
2023/04/22 04:48:03;;;;;;;7.55;6.35;;;;;;;4.75;100.00;101090.28;5041004;28;20184;-49
2023/04/22 04:50:34;;;;;;;8.43;5.78;;;;;;;5.22;100.00;101085.34;5024260;28;20238;-50
2023/04/22 04:53:01;;;;;;;7.18;5.57;;;;;;;5.53;100.00;101079.63;5032715;28;20179;-48
2023/04/22 04:55:32;;;;;;;7.88;5.72;;;;;;;5.86;100.00;101075.66;5025290;28;20191;-48
2023/04/22 04:58:00;;;;;;;8.57;5.28;;;;;;;6.00;100.00;101083.44;5005040;28;20196;-49
2023/04/22 05:00:26;;;;;;;6.45;5.00;;;;;;;6.25;100.00;101081.25;5034338;28;20204;-46
2023/04/22 05:02:52;;;;;;;9.55;5.70;;;;;;;6.54;100.00;101070.13;5037809;28;20194;-46
2023/04/22 05:05:18;;;;;;;8.15;4.70;;;;;;;6.59;100.00;101062.06;5044493;28;20278;-48
2023/04/22 05:07:43;;;;;;;6.18;4.78;;;;;;;6.65;100.00;101063.72;5029471;28;20441;-46
2023/04/22 05:10:11;;;;;;;5.70;4.70;;;;;;;6.75;100.00;101062.66;5027210;28;20231;-46
2023/04/22 05:12:37;;;;;;;8.30;4.78;;;;;;;6.89;98.83;101057.09;5028181;28;20181;-46
2023/04/22 05:15:06;;;;;;;6.90;5.13;;;;;;;7.03;97.78;101060.34;5025796;28;20669;-46
2023/04/22 05:17:32;;;;;;;6.63;4.95;;;;;;;7.12;96.60;101053.94;5023604;28;20190;-47
2023/04/22 05:19:57;;;;;;;6.20;4.72;;;;;;;7.47;95.96;101045.19;5046935;28;20608;-46
2023/04/22 05:22:24;;;;;;;5.45;4.95;;;;;;;7.69;94.23;101036.72;5045487;28;20203;-46
2023/04/22 05:24:49;;;;;;;6.85;4.70;;;;;;;8.07;92.87;101038.50;5032980;28;20686;-47
2023/04/22 05:27:15;;;;;;;9.30;5.95;;;;;;;8.37;91.86;101031.47;5029506;28;20220;-47
2023/04/22 05:29:41;;;;;;;6.82;5.57;;;;;;;8.72;90.05;101020.81;5035626;28;20212;-47
2023/04/22 05:32:10;;;;;;;7.78;5.72;;;;;;;9.28;87.69;101021.88;5034236;28;20187;-48
2023/04/22 05:34:36;;;;;;;10.32;5.90;;;;;;;9.45;84.90;101018.69;5035627;28;20194;-46
2023/04/22 05:37:03;;;;;;;9.98;5.85;;;;;;;9.64;82.80;101015.44;5036501;28;20195;-44
2023/04/22 05:39:29;;;;;;;8.88;5.45;;;;;;;9.95;81.46;101011.78;5038735;28;20211;-47
2023/04/22 05:41:57;;;;;;;9.13;5.75;;;;;;;10.40;79.88;100995.13;5040951;28;20187;-45
2023/04/22 05:44:23;;;;;;;5.85;5.30;;;;;;;10.57;77.64;100998.09;5027560;28;20550;-45
2023/04/22 05:46:49;;;;;;;7.20;5.43;;;;;;;11.01;75.73;100982.19;5032465;28;20270;-46
2023/04/22 05:49:16;;;;;;;7.88;5.53;;;;;;;10.95;74.38;100963.63;5038629;28;20211;-45
2023/04/22 05:52:20;;;;;;;7.88;5.40;;;;;;;11.30;73.17;100958.72;5029884;28;20557;-44
2023/04/22 05:55:02;;;;;;;7.95;5.32;;;;;;;11.63;71.83;100945.81;5036492;28;20199;-44
2023/04/22 05:57:28;;;;;;;9.77;5.65;;;;;;;11.61;71.09;100952.16;5027938;28;20192;-44
2023/04/22 05:59:54;;;;;;;7.00;5.85;;;;;;;11.98;70.54;100934.56;5030860;28;20247;-44
2023/04/22 06:02:19;;;;;;;6.80;5.50;;;;;;;11.86;69.88;100934.09;5022589;28;20180;-44
2023/04/22 06:04:45;;;;;;;7.03;5.53;;;;;;;12.11;68.61;100920.56;5032395;28;20287;-44
2023/04/22 06:07:10;;;;;;;6.80;5.07;;;;;;;12.44;67.70;100916.44;5020722;28;20662;-46
2023/04/22 06:09:38;;;;;;;9.55;5.88;;;;;;;12.41;66.77;100905.81;5034646;28;20215;-45
2023/04/22 06:12:03;;;;;;;6.90;5.47;;;;;;;12.65;66.42;100899.34;5018328;28;20230;-45
2023/04/22 06:14:29;;;;;;;7.30;5.63;;;;;;;12.74;65.69;100890.84;5031806;28;20190;-43
2023/04/22 06:16:55;;;;;;;7.07;5.82;;;;;;;12.86;64.81;100888.56;5041153;28;20519;-46
2023/04/22 06:19:20;;;;;;;7.75;5.40;;;;;;;12.98;64.43;100879.88;5035890;28;20208;-45
2023/04/22 06:21:46;;;;;;;7.05;5.43;;;;;;;13.20;63.90;100879.72;5027979;28;20690;-43
2023/04/22 06:24:11;;;;;;;6.22;5.35;;;;;;;13.11;63.13;100869.41;5017926;28;20228;-45
2023/04/22 06:26:37;;;;;;;6.45;5.45;;;;;;;13.47;63.26;100856.03;5026332;28;20219;-47
2023/04/22 06:29:04;;;;;;;6.18;5.57;;;;;;;13.53;62.70;100854.84;5026621;28;20203;-45
2023/04/22 06:31:31;;;;;;;7.57;5.55;;;;;;;13.56;62.07;100852.00;5022410;28;20683;-45
2023/04/22 06:33:58;;;;;;;7.68;5.68;;;;;;;13.43;61.60;100850.88;5033612;28;20184;-46
2023/04/22 06:36:26;;;;;;;7.13;5.57;;;;;;;13.59;61.50;100850.00;5032696;28;20190;-45
2023/04/22 06:38:58;;;;;;;7.45;5.43;;;;;;;13.47;60.86;100833.59;5039867;28;20215;-43
2023/04/22 06:41:36;;;;;;;9.35;5.55;;;;;;;13.61;60.50;100833.78;5028205;28;20225;-46
2023/04/22 06:44:10;;;;;;;10.73;5.28;;;;;;;13.95;59.99;100818.56;5034538;28;20281;-46
2023/04/22 06:46:54;;;;;;;5.65;5.15;;;;;;;13.85;59.21;100806.56;5034345;28;20215;-44
2023/04/22 06:49:38;;;;;;;7.88;5.72;;;;;;;14.12;59.29;100798.81;5033678;28;20295;-45
2023/04/22 06:52:29;;;;;;;5.72;5.13;;;;;;;14.32;58.80;100801.34;5024455;28;20192;-48
2023/04/22 06:54:57;;;;;;;7.43;5.35;;;;;;;14.50;58.86;100812.06;5032139;28;20191;-48
2023/04/22 06:57:22;;;;;;;7.30;5.38;;;;;;;14.49;58.67;100804.91;5040228;28;20187;-49
2023/04/22 06:59:48;;;;;;;7.28;5.65;;;;;;;14.45;57.98;100788.03;5020266;28;20212;-47
2023/04/22 07:02:14;;;;;;;10.48;6.10;;;;;;;14.77;57.42;100801.59;5038883;28;20512;-48
2023/04/22 07:04:40;;;;;;;8.05;5.40;;;;;;;14.77;57.32;100786.28;5038090;28;20274;-49
2023/04/22 07:07:06;;;;;;;6.57;5.68;;;;;;;14.90;56.75;100780.19;5038325;28;20576;-49
2023/04/22 07:09:32;;;;;;;8.50;5.80;;;;;;;14.96;55.98;100779.84;5026546;28;20262;-48
2023/04/22 07:11:58;;;;;;;9.23;6.18;;;;;;;14.60;55.92;100771.03;5040856;28;20557;-49
2023/04/22 07:14:28;;;;;;;9.95;6.10;;;;;;;14.37;56.15;100766.03;5040573;28;20191;-48
2023/04/22 07:16:54;;;;;;;6.85;5.18;;;;;;;15.17;56.48;100781.28;5043889;28;20640;-48
2023/04/22 07:19:20;;;;;;;6.32;5.50;;;;;;;15.40;55.71;100766.44;5023325;28;20368;-49
2023/04/22 07:21:46;;;;;;;7.82;5.30;;;;;;;15.55;55.26;100758.41;5033641;28;20282;-49
2023/04/22 07:24:12;;;;;;;8.88;5.72;;;;;;;15.63;55.05;100745.28;5044695;28;20618;-47
2023/04/22 07:26:42;;;;;;;8.65;5.72;;;;;;;15.78;55.26;100748.91;5046918;28;20631;-47
2023/04/22 07:29:08;;;;;;;11.13;5.95;;;;;;;15.77;54.93;100733.69;5039080;28;20223;-49
2023/04/22 07:31:36;;;;;;;8.48;5.53;;;;;;;15.80;54.63;100733.47;5030151;28;20188;-49
2023/04/22 07:34:02;;;;;;;7.03;5.88;;;;;;;15.53;54.59;100726.09;5036149;28;20239;-47
2023/04/22 07:36:28;;;;;;;10.23;5.90;;;;;;;16.02;54.45;100731.19;5020891;28;20263;-48
2023/04/22 07:38:53;;;;;;;9.65;6.15;;;;;;;16.16;54.50;100734.84;5029460;28;20220;-47
2023/04/22 07:41:18;;;;;;;6.45;5.80;;;;;;;15.68;54.00;100726.09;5040303;28;20192;-49
2023/04/22 07:43:44;;;;;;;7.75;6.07;;;;;;;15.63;54.51;100742.59;5028781;28;20181;-49
2023/04/22 07:46:10;;;;;;;6.95;5.50;;;;;;;15.88;54.79;100742.00;5019358;28;20216;-47
2023/04/22 07:48:35;;;;;;;7.20;5.57;;;;;;;15.71;54.19;100737.63;5019613;28;20175;-47
2023/04/22 07:51:01;;;;;;;6.80;5.68;;;;;;;15.84;55.15;100740.44;5038624;28;20204;-48
2023/04/22 07:53:27;;;;;;;8.90;5.50;;;;;;;15.88;54.62;100733.88;5034692;28;20187;-47
2023/04/22 07:55:52;;;;;;;8.27;5.75;;;;;;;16.06;54.47;100731.88;5020490;28;20621;-47
2023/04/22 07:58:18;;;;;;;7.70;5.72;;;;;;;16.31;54.12;100733.91;5020662;28;20239;-49
2023/04/22 08:00:43;;;;;;;8.15;5.68;;;;;;;16.68;54.21;100721.56;5032446;28;20638;-47
2023/04/22 08:03:09;;;;;;;8.50;5.60;;;;;;;16.92;53.87;100722.78;5031258;28;20190;-47
2023/04/22 08:05:34;;;;;;;8.95;5.53;;;;;;;16.82;53.18;100728.81;5022145;28;20188;-48
2023/04/22 08:08:00;;;;;;;8.68;5.32;;;;;;;17.13;53.86;100737.59;5023144;28;20654;-47
2023/04/22 08:10:25;;;;;;;6.75;4.82;;;;;;;17.48;52.61;100723.50;5037137;28;20594;-48
2023/04/22 08:12:51;;;;;;;8.77;5.65;;;;;;;17.54;51.80;100712.22;5032363;28;20506;-50
2023/04/22 08:15:17;;;;;;;8.27;5.03;;;;;;;17.47;50.91;100692.84;5021872;28;20296;-47
2023/04/22 08:17:43;;;;;;;10.43;5.22;;;;;;;17.37;50.83;100689.00;5025556;28;20604;-47
2023/04/22 08:20:08;;;;;;;9.40;5.00;;;;;;;17.40;50.68;100682.50;5035268;28;20235;-46
2023/04/22 08:22:34;;;;;;;5.38;4.88;;;;;;;17.50;50.54;100679.06;5035397;28;20339;-46
2023/04/22 08:25:00;;;;;;;7.35;5.30;;;;;;;17.64;50.35;100680.78;5022826;28;20548;-47
2023/04/22 08:27:25;;;;;;;6.47;5.07;;;;;;;17.35;50.35;100671.13;5023026;28;20268;-46
2023/04/22 08:29:51;;;;;;;8.30;4.90;;;;;;;17.12;50.30;100668.19;5032196;28;20212;-49
2023/04/22 08:32:18;;;;;;;6.65;5.05;;;;;;;17.59;50.28;100664.00;5026429;28;20192;-46
2023/04/22 08:34:46;;;;;;;6.78;4.53;;;;;;;18.04;50.40;100674.44;5023267;28;20188;-46
2023/04/22 08:37:12;;;;;;;8.18;4.90;;;;;;;17.91;49.98;100659.03;5028766;28;20191;-46
2023/04/22 08:39:38;;;;;;;7.53;5.07;;;;;;;18.23;49.98;100668.53;5039112;28;20705;-48
2023/04/22 08:42:04;;;;;;;7.07;5.13;;;;;;;17.94;49.37;100649.81;5034581;28;20190;-47
2023/04/22 08:44:30;;;;;;;7.28;4.47;;;;;;;18.32;49.54;100657.00;5026711;28;20527;-46
2023/04/22 08:46:57;;;;;;;11.10;5.20;;;;;;;18.49;49.69;100664.75;5029352;28;20239;-47
2023/04/22 08:49:24;;;;;;;7.72;4.88;;;;;;;18.27;49.03;100645.63;5031394;28;20208;-49
2023/04/22 08:51:49;;;;;;;6.70;5.18;;;;;;;17.93;48.62;100629.13;5031315;28;20252;-46
2023/04/22 08:54:15;;;;;;;9.77;4.95;;;;;;;17.93;48.98;100629.13;5030713;28;20192;-47
2023/04/22 08:56:43;;;;;;;5.15;4.20;;;;;;;18.36;49.12;100644.94;5027152;28;20209;-48
2023/04/22 08:59:10;;;;;;;7.15;5.13;;;;;;;18.31;48.09;100626.31;5044297;28;20257;-47
2023/04/22 09:01:37;;;;;;;7.00;4.35;;;;;;;18.10;48.44;100614.31;5046307;28;20523;-46
2023/04/22 09:04:03;;;;;;;8.85;4.30;;;;;;;18.22;48.70;100618.00;5018789;28;20204;-46
2023/04/22 09:06:31;;;;;;;8.10;4.88;;;;;;;17.71;48.72;100622.50;5034334;28;20211;-47
2023/04/22 09:08:57;;;;;;;6.65;4.30;;;;;;;18.15;49.36;100627.53;5037722;28;20189;-48
2023/04/22 09:11:29;;;;;;;7.70;5.05;;;;;;;18.03;49.42;100613.06;5019961;28;20238;-48
2023/04/22 09:13:55;;;;;;;7.22;4.90;;;;;;;18.04;49.64;100628.34;5042866;28;20206;-45
2023/04/22 09:16:20;;;;;;;7.05;4.60;;;;;;;18.22;50.35;100627.00;5034540;28;20191;-46
2023/04/22 09:18:46;;;;;;;6.85;4.53;;;;;;;18.26;49.69;100624.94;5025186;28;20189;-47
2023/04/22 09:21:12;;;;;;;6.50;4.75;;;;;;;18.58;49.67;100624.38;5027603;28;20223;-48
2023/04/22 09:23:52;;;;;;;7.70;5.00;;;;;;;18.10;49.17;100607.09;5028628;28;20188;-47
2023/04/22 09:26:23;;;;;;;7.45;4.40;;;;;;;17.95;50.18;100608.19;5040220;28;20929;-46
2023/04/22 09:28:59;;;;;;;6.43;4.63;;;;;;;18.56;50.46;100613.63;5023954;28;20697;-47
2023/04/22 09:31:28;;;;;;;9.25;4.97;;;;;;;18.53;49.46;100617.44;5019097;28;20266;-47
2023/04/22 09:33:57;;;;;;;8.98;4.63;;;;;;;18.45;49.42;100617.13;5025926;28;20613;-46
2023/04/22 09:36:26;;;;;;;5.75;4.75;;;;;;;18.11;49.46;100608.81;5033280;28;20188;-47
2023/04/22 09:38:57;;;;;;;7.20;4.90;;;;;;;18.07;49.62;100610.00;5020253;28;20687;-46
2023/04/22 09:41:27;;;;;;;6.25;4.32;;;;;;;17.88;50.19;100604.19;5017228;28;20187;-47
2023/04/22 09:43:57;;;;;;;7.28;5.10;;;;;;;18.22;50.26;100607.16;5029399;28;20534;-47
2023/04/22 09:46:24;;;;;;;7.00;4.78;;;;;;;18.00;50.17;100606.00;5029670;28;20207;-47
2023/04/22 09:48:50;;;;;;;9.02;4.90;;;;;;;18.35;50.43;100618.81;5023492;28;20184;-47
2023/04/22 09:51:16;;;;;;;6.35;4.40;;;;;;;18.77;50.16;100624.72;5024361;28;20270;-47
2023/04/22 09:53:42;;;;;;;10.75;4.60;;;;;;;18.92;49.42;100612.72;5027509;28;20242;-47
2023/04/22 09:56:08;;;;;;;5.35;4.63;;;;;;;18.12;48.88;100596.09;5031872;28;20267;-48
2023/04/22 09:58:38;;;;;;;6.18;4.60;;;;;;;18.65;48.88;100606.63;5027486;28;20648;-47
2023/04/22 10:01:04;;;;;;;7.72;4.72;;;;;;;19.30;49.21;100614.28;5021839;28;20198;-46
2023/04/22 10:03:30;;;;;;;7.82;5.13;;;;;;;19.14;48.75;100609.19;5030678;28;20279;-48
2023/04/22 10:05:58;;;;;;;7.45;4.72;;;;;;;19.24;48.24;100598.50;5023462;28;20222;-47
2023/04/22 10:08:23;;;;;;;9.07;4.75;;;;;;;19.37;48.51;100606.53;5023197;28;20274;-48
2023/04/22 10:10:49;;;;;;;9.07;4.90;;;;;;;19.05;47.41;100573.78;5030188;28;20203;-47
2023/04/22 10:13:15;;;;;;;7.38;5.00;;;;;;;19.18;47.84;100577.25;5035319;28;20188;-47
2023/04/22 10:15:49;;;;;;;6.15;4.68;;;;;;;19.62;48.04;100585.59;5023864;28;20183;-48
2023/04/22 10:18:19;;;;;;;8.85;5.05;;;;;;;19.64;47.40;100570.03;5015533;28;20238;-47
2023/04/22 10:20:47;;;;;;;5.95;4.32;;;;;;;19.66;47.58;100563.47;5030809;28;20301;-46
2023/04/22 10:23:17;;;;;;;6.45;4.88;;;;;;;19.40;47.71;100553.81;5041174;28;20646;-47
2023/04/22 10:25:47;;;;;;;6.10;5.35;;;;;;;19.54;47.54;100553.56;5037632;28;20537;-46
2023/04/22 10:28:16;;;;;;;8.57;4.47;;;;;;;19.73;47.78;100547.56;5030193;28;20558;-46
2023/04/22 10:30:42;;;;;;;6.70;4.82;;;;;;;19.86;47.32;100547.41;5041048;28;20198;-46
2023/04/22 10:33:19;;;;;;;8.07;4.65;;;;;;;19.65;47.20;100550.00;5025495;28;20293;-47
2023/04/22 10:36:24;;;;;;;7.72;5.13;;;;;;;19.61;47.56;100541.22;5035140;28;20188;-46
2023/04/22 10:38:53;;;;;;;9.18;4.90;;;;;;;19.53;47.64;100546.41;5025672;28;20286;-47
2023/04/22 10:41:24;;;;;;;8.77;4.82;;;;;;;19.67;47.63;100548.88;5039241;28;20668;-46
2023/04/22 10:44:01;;;;;;;7.28;5.10;;;;;;;19.83;47.60;100543.09;5024048;28;20197;-45
2023/04/22 10:46:30;;;;;;;7.50;5.20;;;;;;;19.80;47.25;100545.19;5026427;28;20199;-46
2023/04/22 10:48:56;;;;;;;9.40;5.07;;;;;;;19.75;47.46;100530.13;5047094;28;20198;-49
2023/04/22 10:51:40;;;;;;;7.32;4.80;;;;;;;19.83;47.34;100536.78;5034790;28;20181;-47
2023/04/22 10:54:06;;;;;;;10.25;4.55;;;;;;;19.55;47.59;100520.84;5032753;28;20199;-48
2023/04/22 10:56:31;;;;;;;6.65;4.70;;;;;;;20.13;47.53;100536.97;5020157;28;20184;-47
2023/04/22 10:58:57;;;;;;;9.93;4.18;;;;;;;20.21;46.98;100530.03;5035235;28;20179;-47
2023/04/22 11:01:26;;;;;;;8.85;4.25;;;;;;;20.32;47.10;100530.88;5032495;28;20604;-47
2023/04/22 11:03:51;;;;;;;13.25;3.97;;;;;;;20.05;45.98;100500.53;5023815;28;20219;-47
2023/04/22 11:06:21;;;;;;;6.05;3.85;;;;;;;20.33;46.05;100494.50;5018408;28;20279;-47
2023/04/22 11:09:06;;;;;;;5.15;4.00;;;;;;;20.23;45.69;100479.09;5039704;28;20170;-47
2023/04/22 11:11:31;;;;;;;5.50;4.00;;;;;;;20.31;45.95;100492.88;5031418;28;20278;-47
2023/04/22 11:13:57;;;;;;;4.55;3.58;;;;;;;19.60;46.25;100471.56;5027704;28;20667;-49
2023/04/22 11:16:23;;;;;;;7.28;4.10;;;;;;;19.62;46.62;100501.34;5023395;28;20163;-47
2023/04/22 11:18:49;;;;;;;4.65;3.75;;;;;;;19.79;46.94;100489.09;5040689;28;20192;-48
2023/04/22 11:21:15;;;;;;;8.00;4.05;;;;;;;19.91;46.76;100496.25;5029784;28;20233;-47
2023/04/22 11:23:48;;;;;;;6.45;3.70;;;;;;;19.71;46.60;100479.72;5024867;28;20638;-49
2023/04/22 11:26:14;;;;;;;6.53;3.70;;;;;;;19.82;46.93;100486.13;5020783;28;20287;-45
2023/04/22 11:28:46;;;;;;;7.43;3.90;;;;;;;20.23;47.23;100492.69;5038195;28;20254;-44
2023/04/22 11:31:13;;;;;;;5.93;3.55;;;;;;;20.51;46.26;100480.31;5036758;28;20183;-46